Terminal Aerodrome Forecast
Issued by NWS

Home | Current Version | Previous Version | Text Only | Print | Product List | Glossary On
Versions: 1 2 3 4 5 6 7 8 9 10 11 12 13 14 15
000
FTUS44 KBMX 242300
TAFANB
TAF
KANB 242320Z 2500/2524 28008KT P6SM SCT015 OVC035
     FM250700 28005KT P6SM SCT020 OVC035
     FM251800 27004KT P6SM SCT030=

USA.gov is the U.S. government's official web portal to all federal, state and local government web resources and services.